Time;durP1;ratioP1;P1;durP2;ratioP2;P2;SDS_P1;SDS_P2;PMS_P1;PMS_P2;Temp;Humidity;BMP_temperature;BMP_pressure;BME280_temperature;BME280_humidity;BME280_pressure;Samples;Min_cycle;Max_cycle;Signal;HPM_P1;HPM_P2
2023/05/13 00:00:49;;;;;;;6.53;1.90;;;;;;;23.99;41.28;99998.09;4261141;33;34938;-62
2023/05/13 00:03:16;;;;;;;4.28;1.75;;;;;;;23.99;41.30;99997.25;4260781;33;34119;-62
2023/05/13 00:05:44;;;;;;;3.60;1.58;;;;;;;24.00;41.32;100004.38;4260959;33;33069;-62
2023/05/13 00:08:12;;;;;;;3.20;1.35;;;;;;;23.98;41.36;100001.88;4259811;33;33765;-62
2023/05/13 00:10:40;;;;;;;6.07;2.03;;;;;;;23.98;41.40;99999.16;4260853;33;33757;-62
2023/05/13 00:13:07;;;;;;;4.15;1.73;;;;;;;23.99;41.42;100006.28;4261242;33;34156;-63
2023/05/13 00:15:35;;;;;;;5.93;1.83;;;;;;;23.98;41.42;100007.34;4260922;33;33427;-63
2023/05/13 00:18:02;;;;;;;4.57;1.92;;;;;;;23.99;41.37;100002.72;4250122;33;33855;-63
2023/05/13 00:20:30;;;;;;;5.65;1.80;;;;;;;23.98;41.36;100001.88;4245496;33;34880;-62
2023/05/13 00:22:57;;;;;;;2.65;1.50;;;;;;;23.98;41.34;100001.06;4246662;33;34395;-62
2023/05/13 00:25:25;;;;;;;3.62;1.58;;;;;;;23.98;41.29;100001.88;4246585;33;34236;-63
2023/05/13 00:27:53;;;;;;;2.37;1.65;;;;;;;23.98;41.29;100007.34;4246740;33;33239;-62
2023/05/13 00:30:20;;;;;;;3.45;1.62;;;;;;;23.96;41.26;99998.53;4246732;33;34350;-62
2023/05/13 00:32:48;;;;;;;4.03;2.03;;;;;;;23.97;41.22;100005.66;4246571;33;33456;-63
2023/05/13 00:35:16;;;;;;;4.18;1.83;;;;;;;23.97;41.21;100000.22;4246656;33;34028;-62
2023/05/13 00:37:44;;;;;;;3.10;1.70;;;;;;;23.98;41.19;100007.34;4246674;33;33737;-62
2023/05/13 00:40:18;;;;;;;6.60;1.87;;;;;;;23.97;41.26;100005.66;4246535;33;33866;-62
2023/05/13 00:42:46;;;;;;;3.33;1.50;;;;;;;23.97;41.20;100004.81;4246263;33;33957;-62
2023/05/13 00:45:14;;;;;;;4.37;1.62;;;;;;;23.97;41.18;100007.53;4246680;33;33078;-62
2023/05/13 00:47:41;;;;;;;5.90;1.80;;;;;;;23.97;41.25;100005.66;4246461;33;33686;-62
2023/05/13 00:50:09;;;;;;;3.92;1.60;;;;;;;23.96;41.30;100011.31;4246554;33;33842;-62
2023/05/13 00:52:38;;;;;;;4.80;1.70;;;;;;;23.95;41.35;100012.38;4222356;33;34144;-63
2023/05/13 00:55:07;;;;;;;3.60;1.90;;;;;;;23.95;41.42;100007.78;4246617;33;32902;-63
2023/05/13 00:57:35;;;;;;;5.32;2.00;;;;;;;23.95;41.36;100012.38;4246638;33;33842;-63
2023/05/13 01:00:04;;;;;;;4.00;1.85;;;;;;;23.95;41.33;100007.78;4245188;33;34924;-63
2023/05/13 01:03:01;;;;;;;3.97;1.87;;;;;;;23.95;41.38;100013.22;4245258;33;34077;-63
2023/05/13 01:05:51;;;;;;;4.55;1.65;;;;;;;23.96;41.34;100009.44;4246627;33;33209;-62
2023/05/13 01:08:40;;;;;;;4.40;1.42;;;;;;;23.93;41.35;100015.34;4245431;33;33746;-63
2023/05/13 01:11:20;;;;;;;3.70;1.70;;;;;;;23.94;41.32;100022.47;4246445;33;33673;-63
2023/05/13 01:13:50;;;;;;;4.30;1.65;;;;;;;23.92;41.33;100019.97;4245136;33;33951;-62
2023/05/13 01:16:22;;;;;;;3.08;1.42;;;;;;;23.91;41.35;100020.19;4234050;33;34170;-62
2023/05/13 01:18:52;;;;;;;7.15;1.85;;;;;;;23.90;41.33;100024.78;4259737;33;34530;-63
2023/05/13 01:21:25;;;;;;;2.97;1.65;;;;;;;23.89;41.33;100019.59;4259295;33;33909;-62
2023/05/13 01:23:53;;;;;;;4.47;1.70;;;;;;;23.90;41.34;100023.97;4259412;33;33529;-62
2023/05/13 01:26:21;;;;;;;2.17;1.50;;;;;;;23.89;41.32;100023.13;4260737;33;34099;-63
2023/05/13 01:28:49;;;;;;;3.65;1.70;;;;;;;23.90;41.24;100026.69;4247739;33;33958;-62
2023/05/13 01:31:16;;;;;;;2.90;1.80;;;;;;;23.89;41.21;100023.13;4247910;33;33590;-63
2023/05/13 01:33:45;;;;;;;3.37;1.62;;;;;;;23.88;41.33;100017.91;4247830;33;33713;-64
2023/05/13 01:36:13;;;;;;;3.17;1.73;;;;;;;23.89;41.39;100028.59;4260822;33;33449;-62
2023/05/13 01:38:41;;;;;;;4.30;1.50;;;;;;;23.88;41.44;100018.75;4259257;33;34793;-62
2023/05/13 01:41:09;;;;;;;3.90;1.85;;;;;;;23.89;41.46;100019.59;4259079;33;33994;-62
2023/05/13 01:43:37;;;;;;;2.78;1.70;;;;;;;23.88;41.32;100024.19;4260361;33;34087;-62
2023/05/13 01:46:11;;;;;;;3.33;1.60;;;;;;;23.89;41.32;100025.03;4259272;33;33113;-63
2023/05/13 01:48:39;;;;;;;4.78;1.80;;;;;;;23.88;41.27;100018.75;4260474;33;33958;-62
2023/05/13 01:51:07;;;;;;;3.67;1.67;;;;;;;23.88;41.27;100026.09;4260682;33;34724;-62
2023/05/13 01:53:34;;;;;;;3.47;1.73;;;;;;;23.86;41.35;100023.56;4259422;33;34261;-63
2023/05/13 01:56:02;;;;;;;3.72;1.65;;;;;;;23.87;41.32;100022.50;4259665;33;33474;-63
2023/05/13 01:58:29;;;;;;;5.07;1.80;;;;;;;23.88;41.28;100026.09;4260311;33;33986;-63
2023/05/13 02:00:57;;;;;;;2.35;1.37;;;;;;;23.87;41.29;100027.13;4260738;33;33825;-62
2023/05/13 02:03:24;;;;;;;3.83;1.40;;;;;;;23.86;41.23;100025.47;4260069;33;33956;-62
2023/05/13 02:05:53;;;;;;;3.25;1.62;;;;;;;23.86;41.20;100023.56;4260391;33;33462;-63
2023/05/13 02:08:24;;;;;;;4.82;1.70;;;;;;;23.86;41.12;100029.03;4260286;33;33951;-62
2023/05/13 02:10:56;;;;;;;4.15;1.70;;;;;;;23.86;41.11;100030.91;4259439;33;34053;-63
2023/05/13 02:13:23;;;;;;;2.60;1.40;;;;;;;23.87;41.16;100035.31;4260356;33;34125;-62
2023/05/13 02:15:51;;;;;;;4.35;1.90;;;;;;;23.86;41.07;100025.47;4260232;33;34191;-63
2023/05/13 02:18:19;;;;;;;3.45;1.62;;;;;;;23.85;41.04;100027.37;4247786;33;34672;-62
2023/05/13 02:20:47;;;;;;;4.75;1.45;;;;;;;23.85;41.20;100021.09;4246091;33;35345;-63
2023/05/13 02:23:16;;;;;;;2.85;1.50;;;;;;;23.85;41.21;100026.53;4246024;33;33910;-62
2023/05/13 02:25:44;;;;;;;3.53;1.65;;;;;;;23.86;41.10;100025.47;4246130;33;33157;-63
2023/05/13 02:28:11;;;;;;;5.62;1.67;;;;;;;23.85;41.10;100034.72;4245964;33;34001;-63
2023/05/13 02:30:41;;;;;;;5.80;1.60;;;;;;;23.85;41.11;100034.72;4245918;33;33999;-62
2023/05/13 02:33:08;;;;;;;3.62;1.80;;;;;;;23.86;41.09;100029.03;4246327;33;34528;-63
2023/05/13 02:35:36;;;;;;;2.40;1.40;;;;;;;23.84;41.12;100033.87;4246048;33;33347;-62
2023/05/13 02:38:04;;;;;;;3.25;1.62;;;;;;;23.83;41.11;100032.22;4245815;33;33944;-63
2023/05/13 02:40:32;;;;;;;2.55;1.37;;;;;;;23.83;41.12;100028.66;4246185;33;34127;-63
2023/05/13 02:42:59;;;;;;;3.67;1.87;;;;;;;23.82;41.14;100033.25;4245790;33;33974;-62
2023/05/13 02:45:28;;;;;;;2.50;1.37;;;;;;;23.83;41.14;100036.84;4245800;33;33535;-62
2023/05/13 02:47:56;;;;;;;3.42;1.42;;;;;;;23.83;41.09;100039.56;4244962;33;34607;-63
2023/05/13 02:50:24;;;;;;;1.83;1.20;;;;;;;23.83;41.13;100039.56;4246018;33;33954;-63
2023/05/13 02:52:52;;;;;;;3.62;1.55;;;;;;;23.83;41.09;100042.28;4245980;33;33687;-63
2023/05/13 02:55:20;;;;;;;2.40;1.40;;;;;;;23.81;41.03;100041.66;4246244;33;34111;-63
2023/05/13 02:57:47;;;;;;;2.95;1.40;;;;;;;23.82;41.13;100041.41;4245766;33;34714;-63
2023/05/13 03:00:15;;;;;;;5.47;1.42;;;;;;;23.81;41.16;100038.94;4245728;33;34006;-62
2023/05/13 03:02:43;;;;;;;3.17;1.73;;;;;;;23.82;41.24;100040.59;4245743;33;34519;-63
2023/05/13 03:05:10;;;;;;;3.72;1.50;;;;;;;23.81;41.24;100038.94;4245690;33;33334;-62
2023/05/13 03:07:38;;;;;;;2.33;1.27;;;;;;;23.82;41.24;100043.31;4245245;33;34026;-62
2023/05/13 03:10:06;;;;;;;4.70;1.55;;;;;;;23.80;41.25;100040.81;4245720;33;33976;-62
2023/05/13 03:12:33;;;;;;;2.28;1.20;;;;;;;23.80;41.23;100048.16;4245691;33;33399;-63
2023/05/13 03:15:02;;;;;;;3.97;1.45;;;;;;;23.80;41.23;100040.00;4244386;33;33521;-62
2023/05/13 03:17:30;;;;;;;4.07;1.37;;;;;;;23.79;41.19;100047.34;4253296;33;33938;-63
2023/05/13 03:19:58;;;;;;;5.35;1.60;;;;;;;23.80;41.18;100045.44;4259841;33;33675;-63
2023/05/13 03:22:26;;;;;;;2.53;1.40;;;;;;;23.80;41.19;100045.44;4259898;33;34028;-63
2023/05/13 03:24:54;;;;;;;2.35;1.30;;;;;;;23.80;41.16;100054.44;4259958;33;33137;-62
2023/05/13 03:27:22;;;;;;;3.60;1.50;;;;;;;23.79;41.12;100055.50;4259948;33;34156;-62
2023/05/13 03:29:50;;;;;;;3.42;1.50;;;;;;;23.79;41.12;100054.69;4259537;33;33835;-62
2023/05/13 03:32:18;;;;;;;3.95;1.60;;;;;;;23.80;41.11;100053.63;4259081;33;35547;-63
2023/05/13 03:34:45;;;;;;;2.95;1.60;;;;;;;23.79;41.25;100046.50;4259300;33;33561;-63
2023/05/13 03:37:13;;;;;;;5.03;1.52;;;;;;;23.79;41.25;100057.41;4259496;33;33780;-63
2023/05/13 03:39:41;;;;;;;2.60;1.20;;;;;;;23.80;41.27;100067.25;4259377;33;33986;-62
2023/05/13 03:42:09;;;;;;;3.55;1.40;;;;;;;23.79;41.27;100062.84;4259096;33;33834;-63
2023/05/13 03:44:37;;;;;;;3.55;1.30;;;;;;;23.79;41.18;100060.13;4244757;33;34410;-64
2023/05/13 03:47:05;;;;;;;3.30;1.40;;;;;;;23.79;41.09;100066.41;4258506;33;33925;-62
2023/05/13 03:49:32;;;;;;;4.93;1.60;;;;;;;23.79;41.10;100065.59;4258784;33;34573;-62
2023/05/13 03:52:00;;;;;;;2.83;1.40;;;;;;;23.79;41.09;100071.88;4259020;33;33949;-64
2023/05/13 03:54:28;;;;;;;3.85;1.70;;;;;;;23.79;41.08;100060.13;4258768;33;33420;-63
2023/05/13 03:56:55;;;;;;;4.07;1.30;;;;;;;23.79;41.17;100068.31;4260056;33;32682;-64
2023/05/13 03:59:23;;;;;;;7.45;1.67;;;;;;;23.79;41.03;100071.88;4259159;33;33719;-64
2023/05/13 04:01:51;;;;;;;3.08;1.62;;;;;;;23.79;41.04;100073.75;4258648;33;33832;-63
2023/05/13 04:04:18;;;;;;;2.22;1.20;;;;;;;23.80;41.05;100075.41;4258420;33;33467;-65
2023/05/13 04:06:46;;;;;;;2.35;1.40;;;;;;;23.80;41.00;100084.44;4258197;33;33860;-64
2023/05/13 04:09:13;;;;;;;5.53;2.00;;;;;;;23.79;41.03;100080.03;4258430;33;33811;-63
2023/05/13 04:11:42;;;;;;;3.67;1.48;;;;;;;23.80;41.01;100081.69;4257799;33;33854;-65
2023/05/13 04:14:09;;;;;;;4.07;1.42;;;;;;;23.81;41.00;100077.06;4258679;33;34157;-64
2023/05/13 04:16:37;;;;;;;2.15;1.33;;;;;;;23.80;41.04;100076.25;4254962;33;34574;-63
2023/05/13 04:19:04;;;;;;;2.60;1.58;;;;;;;23.80;41.02;100083.59;4245816;33;34717;-63
2023/05/13 04:21:32;;;;;;;2.17;1.30;;;;;;;23.80;41.01;100080.87;4246084;33;34590;-65
2023/05/13 04:24:00;;;;;;;3.33;1.23;;;;;;;23.81;40.93;100079.81;4246265;33;33542;-64
2023/05/13 04:26:27;;;;;;;2.17;1.48;;;;;;;23.81;40.93;100090.72;4244708;33;34004;-64
2023/05/13 04:28:55;;;;;;;2.00;1.20;;;;;;;23.81;40.91;100087.97;4245921;33;34085;-63
2023/05/13 04:31:22;;;;;;;3.08;1.40;;;;;;;23.80;40.92;100089.88;4245929;33;33840;-64
2023/05/13 04:33:50;;;;;;;4.82;1.75;;;;;;;23.80;41.00;100089.03;4246090;33;33457;-64
2023/05/13 04:36:18;;;;;;;2.83;1.60;;;;;;;23.81;41.00;100090.72;4246304;33;34295;-63
2023/05/13 04:38:45;;;;;;;2.65;1.62;;;;;;;23.80;40.93;100092.59;4245991;33;34018;-63
2023/05/13 04:41:13;;;;;;;3.10;1.50;;;;;;;23.81;40.96;100096.16;4246333;33;33485;-64
2023/05/13 04:43:41;;;;;;;3.97;1.50;;;;;;;23.80;40.92;100091.75;4246255;33;33594;-64
2023/05/13 04:46:09;;;;;;;3.87;1.50;;;;;;;23.80;40.93;100091.75;4246227;33;34135;-64
2023/05/13 04:48:37;;;;;;;2.95;1.50;;;;;;;23.81;40.89;100093.44;4245957;33;34033;-63
2023/05/13 04:51:05;;;;;;;4.93;1.50;;;;;;;23.80;40.87;100092.59;4256811;33;34043;-64
2023/05/13 04:53:33;;;;;;;4.00;1.50;;;;;;;23.81;40.89;100093.44;4260235;33;33008;-63
2023/05/13 04:56:01;;;;;;;2.83;1.60;;;;;;;23.81;40.86;100105.16;4260310;33;34683;-62
2023/05/13 04:58:29;;;;;;;3.17;1.27;;;;;;;23.80;40.86;100105.37;4260370;33;33945;-64
2023/05/13 05:00:56;;;;;;;3.97;1.50;;;;;;;23.80;40.88;100111.66;4260605;33;35118;-64
2023/05/13 05:03:24;;;;;;;3.33;1.70;;;;;;;23.80;40.92;100108.94;4260125;33;33390;-64
2023/05/13 05:05:52;;;;;;;1.50;1.05;;;;;;;23.81;40.89;100109.78;4260481;33;35241;-64
2023/05/13 05:08:20;;;;;;;3.97;1.50;;;;;;;23.80;40.89;100114.41;4260493;33;34750;-64
2023/05/13 05:10:48;;;;;;;3.33;1.42;;;;;;;23.80;40.93;100119.84;4258388;33;33807;-63
2023/05/13 05:13:15;;;;;;;5.32;1.40;;;;;;;23.81;40.87;100115.22;4260499;33;34448;-63
2023/05/13 05:15:43;;;;;;;3.20;1.23;;;;;;;23.80;40.95;100116.28;4260249;33;33650;-63
2023/05/13 05:18:12;;;;;;;1.95;1.45;;;;;;;23.80;40.87;100117.12;4260114;33;33756;-63
2023/05/13 05:20:41;;;;;;;3.55;1.45;;;;;;;23.81;40.81;100109.78;4260500;33;34551;-64
2023/05/13 05:23:09;;;;;;;2.47;1.30;;;;;;;23.80;40.79;100116.28;4260333;33;33436;-64
2023/05/13 05:25:37;;;;;;;2.50;1.42;;;;;;;23.80;40.88;100116.28;4260187;33;34687;-64
2023/05/13 05:28:04;;;;;;;2.47;1.30;;;;;;;23.79;40.84;100120.91;4260341;33;33637;-64
2023/05/13 05:30:38;;;;;;;2.08;1.30;;;;;;;23.80;40.84;100124.47;4260274;33;33703;-65
2023/05/13 05:33:06;;;;;;;2.67;1.40;;;;;;;23.80;40.81;100128.03;4260323;33;33299;-65
2023/05/13 05:35:37;;;;;;;2.47;1.10;;;;;;;23.81;40.81;100121.50;4259123;33;34444;-64
2023/05/13 05:38:05;;;;;;;1.62;1.10;;;;;;;23.80;40.79;100125.28;4260314;33;34008;-63
2023/05/13 05:40:35;;;;;;;2.43;1.40;;;;;;;23.81;40.86;100132.41;4247593;33;34567;-64
2023/05/13 05:43:03;;;;;;;3.95;1.83;;;;;;;23.81;40.82;100120.69;4247271;33;33756;-64
2023/05/13 05:45:30;;;;;;;2.12;1.30;;;;;;;23.81;40.90;100123.41;4259676;33;34355;-64
2023/05/13 05:47:58;;;;;;;3.30;1.50;;;;;;;23.79;40.93;100118.19;4260343;33;33830;-63
2023/05/13 05:50:32;;;;;;;1.65;1.23;;;;;;;23.79;40.87;100118.19;4259796;33;33677;-63
2023/05/13 05:53:00;;;;;;;3.95;1.42;;;;;;;23.80;40.92;100116.28;4258857;33;33439;-65
2023/05/13 05:55:30;;;;;;;2.33;1.42;;;;;;;23.80;40.93;100116.28;4258800;33;33311;-64
2023/05/13 05:58:02;;;;;;;2.87;1.40;;;;;;;23.79;40.90;100114.63;4259906;33;34723;-64
2023/05/13 06:00:31;;;;;;;4.20;1.80;;;;;;;23.80;40.88;100119.84;4260265;33;33933;-65
2023/05/13 06:02:59;;;;;;;3.05;1.25;;;;;;;23.80;40.83;100122.56;4247017;33;32509;-64
2023/05/13 06:05:27;;;;;;;2.08;1.15;;;;;;;23.82;40.82;100131.34;4260012;33;33961;-64
2023/05/13 06:07:55;;;;;;;2.30;1.25;;;;;;;23.79;40.82;100128.25;4260099;33;34679;-64
2023/05/13 06:10:23;;;;;;;2.85;1.48;;;;;;;23.80;40.90;100130.75;4259986;33;33922;-64
2023/05/13 06:12:52;;;;;;;2.42;1.45;;;;;;;23.80;40.85;100132.63;4259991;33;33142;-64
2023/05/13 06:15:19;;;;;;;2.83;1.30;;;;;;;23.80;40.82;100129.91;4256914;33;33621;-64
2023/05/13 06:17:47;;;;;;;2.70;1.33;;;;;;;23.79;40.89;100130.97;4260479;33;35039;-62
2023/05/13 06:20:14;;;;;;;4.93;1.37;;;;;;;23.82;41.21;100138.69;4260425;33;34840;-62
2023/05/13 06:22:42;;;;;;;4.57;2.10;;;;;;;23.81;41.27;100139.75;4260156;33;33606;-63
2023/05/13 06:25:10;;;;;;;6.65;2.05;;;;;;;23.78;40.82;100146.50;4259618;33;33924;-63
2023/05/13 06:27:39;;;;;;;8.57;2.15;;;;;;;23.76;40.73;100136.84;4260049;33;33810;-63
2023/05/13 06:30:07;;;;;;;11.38;2.40;;;;;;;23.74;40.75;100147.16;4253121;33;241306;-63
2023/05/13 06:32:35;;;;;;;5.95;2.30;;;;;;;23.71;40.70;100148.41;4260190;33;34229;-63
2023/05/13 06:35:06;;;;;;;5.37;2.15;;;;;;;23.70;40.61;100146.75;4259928;33;33762;-63
2023/05/13 06:37:34;;;;;;;9.52;2.20;;;;;;;23.69;40.55;100145.09;4258258;33;34616;-63
2023/05/13 06:40:03;;;;;;;4.97;1.87;;;;;;;23.67;40.48;100145.28;4257967;33;33866;-62
2023/05/13 06:42:31;;;;;;;12.65;2.15;;;;;;;23.66;40.41;100149.06;4258531;33;32742;-63
2023/05/13 06:44:59;;;;;;;6.72;2.40;;;;;;;23.66;40.39;100143.62;4258793;33;33589;-63
2023/05/13 06:47:27;;;;;;;5.85;2.17;;;;;;;23.65;40.42;100141.13;4258721;33;33739;-63
2023/05/13 06:49:55;;;;;;;3.50;2.40;;;;;;;23.66;40.38;100145.53;4258721;33;33848;-63
2023/05/13 06:52:22;;;;;;;6.15;2.03;;;;;;;23.66;40.34;100143.62;4259609;33;34039;-62
2023/05/13 06:54:50;;;;;;;4.32;2.00;;;;;;;23.66;40.34;100145.53;4259286;33;34474;-63
2023/05/13 06:57:17;;;;;;;4.45;2.20;;;;;;;23.67;40.31;100150.75;4260009;33;34918;-62
2023/05/13 06:59:46;;;;;;;5.35;2.58;;;;;;;23.67;40.28;100142.56;4260014;33;33431;-63
2023/05/13 07:02:13;;;;;;;4.75;2.25;;;;;;;23.67;40.25;100131.66;4259986;33;33398;-62
2023/05/13 07:04:41;;;;;;;4.35;1.95;;;;;;;23.67;40.22;100133.56;4259752;33;33759;-63
2023/05/13 07:07:08;;;;;;;3.40;1.80;;;;;;;23.68;40.17;100135.22;4259968;33;34704;-63
2023/05/13 07:09:36;;;;;;;4.90;2.08;;;;;;;23.68;40.17;100140.66;4259636;33;34043;-63
2023/05/13 07:12:04;;;;;;;5.55;2.20;;;;;;;23.69;40.18;100134.19;4259949;33;32869;-63
2023/05/13 07:14:31;;;;;;;5.28;2.35;;;;;;;23.70;40.09;100130.41;4244493;33;33921;-63
2023/05/13 07:16:59;;;;;;;3.50;1.80;;;;;;;23.71;40.11;100131.25;4253443;33;33940;-63
2023/05/13 07:19:26;;;;;;;3.25;2.00;;;;;;;23.69;40.18;100128.75;4245309;33;34091;-63
2023/05/13 07:21:54;;;;;;;5.45;2.55;;;;;;;23.68;40.23;100127.88;4245273;33;33881;-63
2023/05/13 07:24:22;;;;;;;6.22;2.85;;;;;;;23.65;39.94;100133.78;4244544;33;34608;-63
2023/05/13 07:26:49;;;;;;;6.70;2.97;;;;;;;23.64;39.74;100140.31;4245058;33;34753;-63
2023/05/13 07:29:17;;;;;;;5.80;2.80;;;;;;;23.62;39.56;100144.25;4245145;33;33982;-63
2023/05/13 07:31:44;;;;;;;5.32;3.15;;;;;;;23.61;39.36;100137.12;4245123;33;33794;-63
2023/05/13 07:34:12;;;;;;;2.47;1.70;;;;;;;23.61;39.51;100143.41;4245306;33;35135;-63
2023/05/13 07:36:39;;;;;;;5.78;2.22;;;;;;;23.62;39.91;100145.09;4245060;33;34829;-63
2023/05/13 07:39:08;;;;;;;5.00;1.92;;;;;;;23.63;40.14;100149.47;4244958;33;34935;-63
2023/05/13 07:41:35;;;;;;;3.15;1.80;;;;;;;23.64;40.25;100153.06;4245220;33;34475;-63
2023/05/13 07:44:04;;;;;;;3.55;1.90;;;;;;;23.65;40.26;100146.56;4244951;33;33829;-63
2023/05/13 07:46:32;;;;;;;3.80;2.08;;;;;;;23.66;40.25;100150.97;4247422;33;33924;-63
2023/05/13 07:48:59;;;;;;;4.00;1.90;;;;;;;23.67;40.22;100148.00;4258951;33;33824;-63
2023/05/13 07:51:28;;;;;;;4.90;1.83;;;;;;;23.67;40.21;100145.28;4259014;33;34295;-63
2023/05/13 07:53:56;;;;;;;4.28;2.03;;;;;;;23.68;40.17;100152.41;4258934;33;33786;-63
2023/05/13 07:56:23;;;;;;;5.90;2.03;;;;;;;23.70;40.14;100160.38;4261033;33;34007;-62
2023/05/13 07:58:51;;;;;;;5.62;2.00;;;;;;;23.72;40.10;100157.41;4260814;33;33811;-63
2023/05/13 08:01:18;;;;;;;4.10;1.95;;;;;;;23.72;40.08;100158.25;4260667;33;33448;-63
2023/05/13 08:03:46;;;;;;;6.00;2.00;;;;;;;23.72;40.08;100160.97;4260622;33;33578;-63
2023/05/13 08:06:14;;;;;;;3.90;1.70;;;;;;;23.74;40.15;100158.06;4260670;33;33928;-62
2023/05/13 08:08:41;;;;;;;6.60;2.53;;;;;;;23.76;40.23;100158.66;4260602;33;33746;-63
2023/05/13 08:11:09;;;;;;;5.90;1.87;;;;;;;23.78;40.26;100170.16;4260661;33;34074;-63
2023/05/13 08:13:37;;;;;;;4.05;2.10;;;;;;;23.78;40.34;100171.03;4260978;33;33899;-63
2023/05/13 08:16:06;;;;;;;4.50;1.70;;;;;;;23.79;40.43;100177.31;4261315;33;33933;-63
2023/05/13 08:18:33;;;;;;;4.80;2.00;;;;;;;23.80;40.51;100184.41;4246379;33;34517;-63
2023/05/13 08:21:01;;;;;;;7.47;1.65;;;;;;;23.81;40.60;100180.63;4246751;33;33223;-63
2023/05/13 08:23:28;;;;;;;4.32;1.48;;;;;;;23.82;40.71;100176.84;4252496;33;33573;-63
2023/05/13 08:26:11;;;;;;;4.37;1.95;;;;;;;23.83;40.80;100181.25;4258570;33;34925;-63
2023/05/13 08:28:38;;;;;;;5.07;1.77;;;;;;;23.83;40.90;100187.53;4258336;33;34032;-63
2023/05/13 08:31:06;;;;;;;4.93;2.00;;;;;;;23.83;40.99;100184.81;4246198;33;33584;-63
2023/05/13 08:33:33;;;;;;;4.82;2.10;;;;;;;23.84;40.99;100194.66;4246289;33;34850;-63
2023/05/13 08:36:01;;;;;;;5.03;2.42;;;;;;;23.85;40.94;100198.22;4247655;33;33947;-62
2023/05/13 08:38:28;;;;;;;4.85;2.10;;;;;;;23.86;40.57;100200.72;4250606;33;34624;-64
2023/05/13 08:40:56;;;;;;;4.78;2.12;;;;;;;23.85;40.67;100195.47;4259197;33;33644;-64
2023/05/13 08:43:24;;;;;;;13.90;2.15;;;;;;;23.86;40.94;100203.44;4259773;33;33901;-62
2023/05/13 08:45:52;;;;;;;4.25;1.77;;;;;;;23.86;41.06;100192.53;4244359;33;33804;-63
2023/05/13 08:48:20;;;;;;;4.80;2.08;;;;;;;23.86;41.10;100200.72;4246061;33;33778;-63
2023/05/13 08:50:47;;;;;;;4.62;2.00;;;;;;;23.86;41.14;100197.16;4243817;33;33565;-63
2023/05/13 08:53:15;;;;;;;5.47;1.92;;;;;;;23.86;41.18;100191.69;4259089;33;33654;-63
2023/05/13 08:55:44;;;;;;;3.72;1.80;;;;;;;23.87;41.22;100198.81;4246569;33;34252;-64
2023/05/13 08:58:11;;;;;;;3.92;2.00;;;;;;;23.87;41.25;100199.63;4258411;33;33858;-64
2023/05/13 09:00:40;;;;;;;5.68;2.53;;;;;;;23.87;41.30;100196.91;4258978;33;32119;-64
2023/05/13 09:03:08;;;;;;;4.03;2.17;;;;;;;23.88;41.32;100189.59;4245924;33;33672;-63
2023/05/13 09:05:36;;;;;;;6.32;2.17;;;;;;;23.88;41.34;100189.59;4258321;33;33704;-66
2023/05/13 09:08:07;;;;;;;10.15;2.42;;;;;;;23.87;41.36;100196.91;4258954;33;34250;-64
2023/05/13 09:10:36;;;;;;;7.10;2.05;;;;;;;23.88;41.37;100195.88;4258270;33;34078;-65
2023/05/13 09:13:03;;;;;;;5.30;2.25;;;;;;;23.87;41.37;100188.75;4259397;33;35596;-65
2023/05/13 09:15:31;;;;;;;6.25;2.10;;;;;;;23.88;41.39;100198.62;4259731;33;33608;-65
2023/05/13 09:18:00;;;;;;;5.25;1.92;;;;;;;23.87;41.40;100194.19;4260310;33;34224;-65
2023/05/13 09:20:27;;;;;;;4.05;1.77;;;;;;;23.87;41.40;100191.47;4258821;33;34510;-64
2023/05/13 09:23:05;;;;;;;4.60;2.03;;;;;;;23.87;41.40;100194.19;4260199;33;33772;-64
2023/05/13 09:25:33;;;;;;;4.87;1.98;;;;;;;23.88;41.38;100193.16;4258785;33;33772;-65
2023/05/13 09:28:02;;;;;;;5.00;1.83;;;;;;;23.86;41.40;100192.53;4260498;33;34296;-65
2023/05/13 09:30:32;;;;;;;5.50;2.05;;;;;;;23.86;41.40;100197.97;4258623;33;34172;-65
2023/05/13 09:33:18;;;;;;;5.75;2.10;;;;;;;23.85;41.38;100201.75;4260076;33;34089;-65
2023/05/13 09:35:50;;;;;;;6.32;2.10;;;;;;;23.86;41.37;100197.16;4260741;33;34036;-64
2023/05/13 09:38:20;;;;;;;4.95;2.08;;;;;;;23.85;41.38;100204.50;4259209;33;34084;-65
2023/05/13 09:40:54;;;;;;;3.83;2.00;;;;;;;23.84;41.40;100193.81;4257866;33;33377;-64
2023/05/13 09:43:25;;;;;;;5.20;2.00;;;;;;;23.83;41.39;100201.16;4257996;33;34081;-64
2023/05/13 09:45:53;;;;;;;4.50;2.10;;;;;;;23.83;41.39;100197.59;4260203;33;33862;-64
2023/05/13 09:48:24;;;;;;;6.28;1.85;;;;;;;23.84;41.36;100196.53;4260712;33;34340;-63
2023/05/13 09:50:53;;;;;;;6.43;2.12;;;;;;;23.83;41.37;100193.00;4260233;33;33582;-64
2023/05/13 09:53:21;;;;;;;6.72;2.03;;;;;;;23.83;41.36;100192.16;4260421;33;33679;-64
2023/05/13 09:55:59;;;;;;;4.53;1.95;;;;;;;23.82;41.35;100190.47;4256435;33;33994;-65
2023/05/13 09:58:27;;;;;;;7.93;2.15;;;;;;;23.82;41.36;100182.28;4260522;33;33846;-65
2023/05/13 10:00:55;;;;;;;4.65;1.85;;;;;;;23.82;41.32;100185.00;4259806;33;34272;-64
2023/05/13 10:03:23;;;;;;;6.90;2.30;;;;;;;23.82;41.33;100191.28;4244170;33;33969;-63
2023/05/13 10:05:51;;;;;;;7.15;2.00;;;;;;;23.81;41.33;100192.34;4242382;33;33894;-64
2023/05/13 10:08:19;;;;;;;4.60;1.65;;;;;;;23.80;41.32;100192.59;4260050;33;34555;-65
2023/05/13 10:10:46;;;;;;;3.85;1.50;;;;;;;23.79;41.26;100189.03;4252308;33;33687;-65
2023/05/13 10:13:15;;;;;;;4.90;2.03;;;;;;;23.80;41.00;100189.84;4244399;33;33469;-63
2023/05/13 10:15:49;;;;;;;4.32;2.03;;;;;;;23.77;40.97;100185.66;4253772;33;34567;-65
2023/05/13 10:18:18;;;;;;;5.50;2.00;;;;;;;23.78;41.04;100191.94;4259856;33;34586;-63
2023/05/13 10:20:46;;;;;;;4.35;1.60;;;;;;;23.77;40.95;100187.56;4256955;33;33283;-64
2023/05/13 10:23:13;;;;;;;2.95;1.65;;;;;;;23.76;40.86;100189.47;4259673;33;33910;-63
2023/05/13 10:25:41;;;;;;;4.30;1.90;;;;;;;23.75;40.79;100186.97;4246149;33;33509;-64
2023/05/13 10:28:09;;;;;;;8.10;2.12;;;;;;;23.74;40.88;100188.84;4260009;33;33846;-63
2023/05/13 10:30:37;;;;;;;6.45;1.80;;;;;;;23.73;40.88;100183.59;4258022;33;34164;-63
2023/05/13 10:33:04;;;;;;;5.35;2.00;;;;;;;23.73;40.88;100184.44;4258676;33;33899;-64
2023/05/13 10:35:35;;;;;;;4.20;2.10;;;;;;;23.73;40.85;100183.59;4257683;33;34844;-65
2023/05/13 10:38:16;;;;;;;3.75;2.08;;;;;;;23.72;40.83;100174.59;4247023;33;33661;-64
2023/05/13 10:41:03;;;;;;;3.35;1.73;;;;;;;23.73;40.81;100172.72;4246696;33;34072;-63
2023/05/13 10:43:31;;;;;;;4.57;1.83;;;;;;;23.73;40.66;100175.44;4259308;33;33854;-64
2023/05/13 10:46:00;;;;;;;4.40;2.00;;;;;;;23.71;40.57;100178.38;4246620;33;33891;-64
2023/05/13 10:48:48;;;;;;;7.50;2.17;;;;;;;23.70;40.59;100182.16;4258739;33;33369;-64
2023/05/13 10:51:17;;;;;;;3.65;1.70;;;;;;;23.74;40.57;100188.03;4258979;33;33276;-62
2023/05/13 10:53:55;;;;;;;4.82;2.10;;;;;;;23.69;40.59;100183.22;4259920;33;33685;-63
2023/05/13 10:56:23;;;;;;;4.30;2.08;;;;;;;23.70;40.60;100184.06;4247006;33;34918;-63
2023/05/13 10:58:57;;;;;;;5.25;1.90;;;;;;;23.67;40.60;100177.97;4250484;33;33684;-64
2023/05/13 11:01:29;;;;;;;4.62;2.20;;;;;;;23.69;40.58;100177.78;4244660;33;33629;-64
2023/05/13 11:03:58;;;;;;;7.32;2.05;;;;;;;23.67;40.55;100171.69;4253908;33;34000;-65
2023/05/13 11:06:33;;;;;;;5.80;2.33;;;;;;;23.66;40.56;100195.38;4259021;33;33942;-64
2023/05/13 11:09:00;;;;;;;4.65;2.22;;;;;;;23.67;40.60;100174.44;4259288;33;34411;-65
2023/05/13 11:11:29;;;;;;;4.60;2.00;;;;;;;23.66;40.60;100168.16;4258448;33;33640;-64
2023/05/13 11:14:16;;;;;;;4.57;1.90;;;;;;;23.65;40.62;100171.94;4259042;33;34386;-64
2023/05/13 11:16:59;;;;;;;4.32;2.20;;;;;;;23.65;40.60;100182.81;4258903;33;34055;-65
2023/05/13 11:19:28;;;;;;;5.25;2.50;;;;;;;23.65;40.63;100185.56;4259318;33;33917;-65
2023/05/13 11:21:57;;;;;;;5.70;2.92;;;;;;;23.62;40.65;100187.84;4258457;33;34202;-64
2023/05/13 11:24:25;;;;;;;7.60;3.87;;;;;;;23.62;40.58;100188.66;4257988;33;34682;-63
2023/05/13 11:26:57;;;;;;;6.70;3.78;;;;;;;23.64;40.57;100186.63;4259595;33;34861;-63
2023/05/13 11:29:32;;;;;;;6.18;3.80;;;;;;;23.64;40.54;100186.63;4251193;33;33939;-64
2023/05/13 11:32:01;;;;;;;8.30;4.93;;;;;;;23.64;40.53;100183.88;4264415;33;33394;-64